Lansing, Michigan
Current Conditions -  °F | °C
As of 9:53 PM on Sunday 21 Dec 2014 (Local Time) from KLAN Reporting Station
Haze Haze  
Wind Chill: 21°   Ceiling: Unl
Heat Index: 30°   Visibility: 6mi
Dew Point: 25°   Wind: 10mph
Humidity: 82%   Direction: 140°SE
Pressure: 30.17"   Gusts: NA
Location:  42.73°N, 84.55°W
Report Text: KLAN 220253Z 14009KT 6SM HZ FEW050 M01/M04 A3017 RMK AO2 SLP226 T10111039 58003
Loading
Personal Weather Stations






























Interactive Weather Map New forecast layout! Learn more

10-Day Weather Forecast

Advertisements
Track Severe Weather on mobile